This is the latest recevied weather packets stored in our database for station/object IW1QNQ-15. If no packets are shown the sender has not sent any weather packets the latest 10 day(s).
| Time | Temp. | Humidity | Pressure | Rain* | Wind** | Luminosity | Snow |
|---|---|---|---|---|---|---|---|
| 1788658502 | 21.11° C | 100% | 1021.4 hPa | - | - | - | - |
| 1788653701 | 21.67° C | 100% | 1021.4 hPa | - | - | - | - |
| 1788647701 | 22.22° C | 100% | 1021.5 hPa | - | - | - | - |
| 1788644102 | 22.22° C | 100% | 1021.3 hPa | - | - | - | - |
| 1788642902 | 22.22° C | 100% | 1021.2 hPa | - | - | - | - |
| 1788640501 | 22.22° C | 100% | 1021 hPa | - | - | - | - |
| 1788639301 | 22.22° C | 100% | 1020.9 hPa | - | - | - | - |
| 1788636901 | 22.78° C | 100% | 1020.7 hPa | - | - | - | - |
| 1788635701 | 22.78° C | 100% | 1020.6 hPa | - | - | - | - |
| 1788634501 | 22.78° C | 100% | 1020.6 hPa | - | - | - | - |
| 1788633301 | 23.33° C | 100% | 1020.3 hPa | - | - | - | - |
| 1788632101 | 23.33° C | 100% | 1020.1 hPa | - | - | - | - |
| 1788630901 | 23.89° C | 99% | 1020 hPa | - | - | - | - |
| 1788629700 | 24.44° C | 97% | 1020 hPa | - | - | - | - |
| 1788628500 | 24.44° C | 94% | 1019.9 hPa | - | - | - | - |
| 1788627300 | 25° C | 91% | 1019.8 hPa | - | - | - | - |
| 1788626100 | 24.44° C | 91% | 1019.9 hPa | - | - | - | - |
| 1788624900 | 25° C | 91% | 1019.9 hPa | - | - | - | - |
| 1788620101 | 28.89° C | 67% | 1020.2 hPa | - | - | - | - |
| 1788618901 | 30° C | 62% | 1020.3 hPa | - | - | - | - |
| 1788617701 | 30° C | 64% | 1020.4 hPa | - | - | - | - |
| 1788616501 | 31.11° C | 60% | 1020.4 hPa | - | - | - | - |
| 1788615300 | 30.56° C | 60% | 1020.5 hPa | - | - | - | - |
| 1788614100 | 31.11° C | 59% | 1020.7 hPa | - | - | - | - |
| 1788612900 | 31.67° C | 59% | 1020.7 hPa | - | - | - | - |
* Rain since midnight (hover to see other rain measurements)
** Current wind speed in m/s (hover to see current wind gust speed)